sensor_id;sensor_type;location;lat;lon;timestamp;temperature;humidity
7720;DHT22;3902;49.474;8.616;2023-06-19T00:01:54;24.70;85.30
7720;DHT22;3902;49.474;8.616;2023-06-19T00:04:19;24.70;84.80
7720;DHT22;3902;49.474;8.616;2023-06-19T00:06:45;24.70;84.60
7720;DHT22;3902;49.474;8.616;2023-06-19T00:09:11;24.70;84.80
7720;DHT22;3902;49.474;8.616;2023-06-19T00:11:36;24.70;85.10
7720;DHT22;3902;49.474;8.616;2023-06-19T00:14:02;24.60;84.50
7720;DHT22;3902;49.474;8.616;2023-06-19T00:16:27;24.70;84.40
7720;DHT22;3902;49.474;8.616;2023-06-19T00:18:53;24.70;84.10
7720;DHT22;3902;49.474;8.616;2023-06-19T00:21:21;24.70;84.30
7720;DHT22;3902;49.474;8.616;2023-06-19T00:23:49;24.60;84.00
7720;DHT22;3902;49.474;8.616;2023-06-19T00:26:15;24.60;83.90
7720;DHT22;3902;49.474;8.616;2023-06-19T00:28:41;24.50;82.90
7720;DHT22;3902;49.474;8.616;2023-06-19T00:31:06;24.50;83.10
7720;DHT22;3902;49.474;8.616;2023-06-19T00:33:32;24.50;83.10
7720;DHT22;3902;49.474;8.616;2023-06-19T00:35:57;24.50;82.90
7720;DHT22;3902;49.474;8.616;2023-06-19T00:38:23;24.50;83.10
7720;DHT22;3902;49.474;8.616;2023-06-19T00:40:49;24.50;83.90
7720;DHT22;3902;49.474;8.616;2023-06-19T00:43:14;24.50;84.20
7720;DHT22;3902;49.474;8.616;2023-06-19T00:45:40;24.50;84.20
7720;DHT22;3902;49.474;8.616;2023-06-19T00:48:06;24.50;84.60
7720;DHT22;3902;49.474;8.616;2023-06-19T00:50:31;24.40;85.20
7720;DHT22;3902;49.474;8.616;2023-06-19T00:52:58;24.40;84.50
7720;DHT22;3902;49.474;8.616;2023-06-19T00:55:26;24.30;84.40
7720;DHT22;3902;49.474;8.616;2023-06-19T00:57:53;24.30;84.40
7720;DHT22;3902;49.474;8.616;2023-06-19T01:00:19;24.30;84.90
7720;DHT22;3902;49.474;8.616;2023-06-19T01:02:44;24.30;85.60
7720;DHT22;3902;49.474;8.616;2023-06-19T01:05:11;24.20;85.60
7720;DHT22;3902;49.474;8.616;2023-06-19T01:07:43;24.30;85.90
7720;DHT22;3902;49.474;8.616;2023-06-19T01:10:13;24.20;85.60
7720;DHT22;3902;49.474;8.616;2023-06-19T01:12:45;24.10;86.00
7720;DHT22;3902;49.474;8.616;2023-06-19T01:15:16;24.10;85.90
7720;DHT22;3902;49.474;8.616;2023-06-19T01:17:42;24.10;85.60
7720;DHT22;3902;49.474;8.616;2023-06-19T01:20:09;24.10;86.20
7720;DHT22;3902;49.474;8.616;2023-06-19T01:22:36;24.10;86.70
7720;DHT22;3902;49.474;8.616;2023-06-19T01:25:02;24.00;86.90
7720;DHT22;3902;49.474;8.616;2023-06-19T01:27:30;24.00;87.00
7720;DHT22;3902;49.474;8.616;2023-06-19T01:29:58;24.00;87.10
7720;DHT22;3902;49.474;8.616;2023-06-19T01:32:56;24.00;87.10
7720;DHT22;3902;49.474;8.616;2023-06-19T01:35:27;23.90;87.50
7720;DHT22;3902;49.474;8.616;2023-06-19T01:37:53;23.90;88.30
7720;DHT22;3902;49.474;8.616;2023-06-19T01:40:19;23.90;88.70
7720;DHT22;3902;49.474;8.616;2023-06-19T01:42:52;23.90;89.90
7720;DHT22;3902;49.474;8.616;2023-06-19T01:45:18;23.90;90.20
7720;DHT22;3902;49.474;8.616;2023-06-19T01:47:44;23.90;90.30
7720;DHT22;3902;49.474;8.616;2023-06-19T01:50:10;23.80;90.40
7720;DHT22;3902;49.474;8.616;2023-06-19T01:52:37;23.80;90.20
7720;DHT22;3902;49.474;8.616;2023-06-19T01:55:03;23.80;90.90
7720;DHT22;3902;49.474;8.616;2023-06-19T01:57:28;23.80;90.40
7720;DHT22;3902;49.474;8.616;2023-06-19T01:59:54;23.80;90.60
7720;DHT22;3902;49.474;8.616;2023-06-19T02:02:20;23.80;90.50
7720;DHT22;3902;49.474;8.616;2023-06-19T02:04:45;23.90;90.50
7720;DHT22;3902;49.474;8.616;2023-06-19T02:07:11;23.90;90.50
7720;DHT22;3902;49.474;8.616;2023-06-19T02:09:38;23.90;90.80
7720;DHT22;3902;49.474;8.616;2023-06-19T02:12:04;23.90;90.80
7720;DHT22;3902;49.474;8.616;2023-06-19T02:14:30;23.90;90.90
7720;DHT22;3902;49.474;8.616;2023-06-19T02:16:55;23.90;90.80
7720;DHT22;3902;49.474;8.616;2023-06-19T02:19:21;23.90;91.00
7720;DHT22;3902;49.474;8.616;2023-06-19T02:21:46;23.90;90.90
7720;DHT22;3902;49.474;8.616;2023-06-19T02:24:12;23.90;90.80
7720;DHT22;3902;49.474;8.616;2023-06-19T02:26:37;23.90;90.80
7720;DHT22;3902;49.474;8.616;2023-06-19T02:29:03;23.90;91.40
7720;DHT22;3902;49.474;8.616;2023-06-19T02:31:28;23.90;91.40
7720;DHT22;3902;49.474;8.616;2023-06-19T02:33:54;23.90;91.10
7720;DHT22;3902;49.474;8.616;2023-06-19T02:36:19;23.90;91.10
7720;DHT22;3902;49.474;8.616;2023-06-19T02:38:49;23.80;91.00
7720;DHT22;3902;49.474;8.616;2023-06-19T02:41:14;23.80;91.20
7720;DHT22;3902;49.474;8.616;2023-06-19T02:43:42;23.80;91.00
7720;DHT22;3902;49.474;8.616;2023-06-19T02:46:07;23.90;91.40
7720;DHT22;3902;49.474;8.616;2023-06-19T02:48:33;23.90;91.20
7720;DHT22;3902;49.474;8.616;2023-06-19T02:50:59;23.90;91.40
7720;DHT22;3902;49.474;8.616;2023-06-19T02:53:24;23.90;91.40
7720;DHT22;3902;49.474;8.616;2023-06-19T02:55:50;23.90;91.20
7720;DHT22;3902;49.474;8.616;2023-06-19T02:58:15;23.90;91.70
7720;DHT22;3902;49.474;8.616;2023-06-19T03:00:41;23.90;91.90
7720;DHT22;3902;49.474;8.616;2023-06-19T03:03:06;23.90;92.10
7720;DHT22;3902;49.474;8.616;2023-06-19T03:05:32;23.70;92.40
7720;DHT22;3902;49.474;8.616;2023-06-19T03:07:57;23.60;92.50
7720;DHT22;3902;49.474;8.616;2023-06-19T03:10:23;23.60;92.80
7720;DHT22;3902;49.474;8.616;2023-06-19T03:12:49;23.60;92.90
7720;DHT22;3902;49.474;8.616;2023-06-19T03:15:14;23.70;93.40
7720;DHT22;3902;49.474;8.616;2023-06-19T03:17:40;23.60;93.50
7720;DHT22;3902;49.474;8.616;2023-06-19T03:20:06;23.50;94.30
7720;DHT22;3902;49.474;8.616;2023-06-19T03:22:31;23.50;94.70
7720;DHT22;3902;49.474;8.616;2023-06-19T03:24:57;23.50;95.20
7720;DHT22;3902;49.474;8.616;2023-06-19T03:27:23;23.60;95.90
7720;DHT22;3902;49.474;8.616;2023-06-19T03:29:50;23.50;95.70
7720;DHT22;3902;49.474;8.616;2023-06-19T03:32:15;23.50;96.00
7720;DHT22;3902;49.474;8.616;2023-06-19T03:34:42;23.50;96.10
7720;DHT22;3902;49.474;8.616;2023-06-19T03:37:07;23.50;96.30
7720;DHT22;3902;49.474;8.616;2023-06-19T03:39:33;23.50;96.40
7720;DHT22;3902;49.474;8.616;2023-06-19T03:41:58;23.40;96.20
7720;DHT22;3902;49.474;8.616;2023-06-19T03:44:24;23.30;96.70
7720;DHT22;3902;49.474;8.616;2023-06-19T03:46:49;23.30;97.00
7720;DHT22;3902;49.474;8.616;2023-06-19T03:49:16;23.30;97.10
7720;DHT22;3902;49.474;8.616;2023-06-19T03:51:43;23.30;97.10
7720;DHT22;3902;49.474;8.616;2023-06-19T03:54:08;23.20;97.40
7720;DHT22;3902;49.474;8.616;2023-06-19T03:56:34;23.30;97.60
7720;DHT22;3902;49.474;8.616;2023-06-19T03:58:59;23.30;97.80
7720;DHT22;3902;49.474;8.616;2023-06-19T04:01:25;23.30;98.10
7720;DHT22;3902;49.474;8.616;2023-06-19T04:03:50;23.30;97.90
7720;DHT22;3902;49.474;8.616;2023-06-19T04:06:16;23.30;98.10
7720;DHT22;3902;49.474;8.616;2023-06-19T04:08:41;23.30;97.90
7720;DHT22;3902;49.474;8.616;2023-06-19T04:11:07;23.30;97.90
7720;DHT22;3902;49.474;8.616;2023-06-19T04:13:32;23.30;98.00
7720;DHT22;3902;49.474;8.616;2023-06-19T04:15:58;23.30;98.20
7720;DHT22;3902;49.474;8.616;2023-06-19T04:18:23;23.20;98.00
7720;DHT22;3902;49.474;8.616;2023-06-19T04:20:49;23.20;98.20
7720;DHT22;3902;49.474;8.616;2023-06-19T04:23:14;23.20;98.40
7720;DHT22;3902;49.474;8.616;2023-06-19T04:25:40;23.20;98.50
7720;DHT22;3902;49.474;8.616;2023-06-19T04:28:06;23.20;98.40
7720;DHT22;3902;49.474;8.616;2023-06-19T04:30:31;23.30;98.50
7720;DHT22;3902;49.474;8.616;2023-06-19T04:32:58;23.20;98.40
7720;DHT22;3902;49.474;8.616;2023-06-19T04:35:24;23.20;98.70
7720;DHT22;3902;49.474;8.616;2023-06-19T04:37:49;23.20;98.80
7720;DHT22;3902;49.474;8.616;2023-06-19T04:40:15;23.20;98.90
7720;DHT22;3902;49.474;8.616;2023-06-19T04:42:41;23.10;99.10
7720;DHT22;3902;49.474;8.616;2023-06-19T04:45:07;23.10;99.20
7720;DHT22;3902;49.474;8.616;2023-06-19T04:47:33;23.10;99.30
7720;DHT22;3902;49.474;8.616;2023-06-19T04:49:59;23.10;99.80
7720;DHT22;3902;49.474;8.616;2023-06-19T04:52:25;23.20;99.80
7720;DHT22;3902;49.474;8.616;2023-06-19T04:54:51;23.10;99.90
7720;DHT22;3902;49.474;8.616;2023-06-19T04:57:16;22.90;99.90
7720;DHT22;3902;49.474;8.616;2023-06-19T04:59:43;23.00;99.90
7720;DHT22;3902;49.474;8.616;2023-06-19T05:02:10;23.10;99.80
7720;DHT22;3902;49.474;8.616;2023-06-19T05:04:35;23.10;99.90
7720;DHT22;3902;49.474;8.616;2023-06-19T05:07:01;23.00;99.90
7720;DHT22;3902;49.474;8.616;2023-06-19T05:09:27;22.90;99.90
7720;DHT22;3902;49.474;8.616;2023-06-19T05:11:52;23.00;99.90
7720;DHT22;3902;49.474;8.616;2023-06-19T05:14:18;23.00;99.90
7720;DHT22;3902;49.474;8.616;2023-06-19T05:16:43;23.00;99.90
7720;DHT22;3902;49.474;8.616;2023-06-19T05:19:09;23.00;99.90
7720;DHT22;3902;49.474;8.616;2023-06-19T05:21:35;23.10;99.90
7720;DHT22;3902;49.474;8.616;2023-06-19T05:24:01;23.00;99.90
7720;DHT22;3902;49.474;8.616;2023-06-19T05:26:26;23.10;99.90
7720;DHT22;3902;49.474;8.616;2023-06-19T05:28:52;22.90;99.90
7720;DHT22;3902;49.474;8.616;2023-06-19T05:31:17;22.90;99.90
7720;DHT22;3902;49.474;8.616;2023-06-19T05:33:44;23.00;99.90
7720;DHT22;3902;49.474;8.616;2023-06-19T05:36:09;22.90;99.90
7720;DHT22;3902;49.474;8.616;2023-06-19T05:38:35;23.00;99.90
7720;DHT22;3902;49.474;8.616;2023-06-19T05:41:01;22.90;99.90
7720;DHT22;3902;49.474;8.616;2023-06-19T05:43:27;22.90;99.90
7720;DHT22;3902;49.474;8.616;2023-06-19T05:45:53;22.90;99.90
7720;DHT22;3902;49.474;8.616;2023-06-19T05:48:21;22.90;99.90
7720;DHT22;3902;49.474;8.616;2023-06-19T05:50:47;23.00;99.90
7720;DHT22;3902;49.474;8.616;2023-06-19T05:53:12;23.00;99.90
7720;DHT22;3902;49.474;8.616;2023-06-19T05:55:38;23.00;99.90
7720;DHT22;3902;49.474;8.616;2023-06-19T05:58:04;23.00;99.90
7720;DHT22;3902;49.474;8.616;2023-06-19T06:00:30;23.10;99.90
7720;DHT22;3902;49.474;8.616;2023-06-19T06:02:57;23.10;99.90
7720;DHT22;3902;49.474;8.616;2023-06-19T06:05:26;23.20;99.90
7720;DHT22;3902;49.474;8.616;2023-06-19T06:07:53;23.10;99.90
7720;DHT22;3902;49.474;8.616;2023-06-19T06:10:23;23.20;99.90
7720;DHT22;3902;49.474;8.616;2023-06-19T06:12:49;23.20;99.90
7720;DHT22;3902;49.474;8.616;2023-06-19T06:15:15;23.20;99.90
7720;DHT22;3902;49.474;8.616;2023-06-19T06:17:41;23.20;99.90
7720;DHT22;3902;49.474;8.616;2023-06-19T06:20:07;23.20;99.90
7720;DHT22;3902;49.474;8.616;2023-06-19T06:22:41;23.30;99.90
7720;DHT22;3902;49.474;8.616;2023-06-19T06:25:07;23.30;99.90
7720;DHT22;3902;49.474;8.616;2023-06-19T06:27:33;23.40;99.90
7720;DHT22;3902;49.474;8.616;2023-06-19T06:29:59;23.50;99.90
7720;DHT22;3902;49.474;8.616;2023-06-19T06:32:25;23.40;99.90
7720;DHT22;3902;49.474;8.616;2023-06-19T06:34:51;23.30;99.90
7720;DHT22;3902;49.474;8.616;2023-06-19T06:37:17;23.40;99.90
7720;DHT22;3902;49.474;8.616;2023-06-19T06:39:48;23.40;99.90
7720;DHT22;3902;49.474;8.616;2023-06-19T06:42:14;23.40;99.90
7720;DHT22;3902;49.474;8.616;2023-06-19T06:44:40;23.50;99.90
7720;DHT22;3902;49.474;8.616;2023-06-19T06:47:05;23.50;99.90
7720;DHT22;3902;49.474;8.616;2023-06-19T06:49:31;23.50;99.90
7720;DHT22;3902;49.474;8.616;2023-06-19T06:51:57;23.50;99.90
7720;DHT22;3902;49.474;8.616;2023-06-19T06:54:22;23.50;99.90
7720;DHT22;3902;49.474;8.616;2023-06-19T06:56:48;23.50;99.90
7720;DHT22;3902;49.474;8.616;2023-06-19T06:59:13;23.50;99.90
7720;DHT22;3902;49.474;8.616;2023-06-19T07:01:42;23.50;99.90
7720;DHT22;3902;49.474;8.616;2023-06-19T07:04:07;23.60;99.90
7720;DHT22;3902;49.474;8.616;2023-06-19T07:06:33;23.50;99.90
7720;DHT22;3902;49.474;8.616;2023-06-19T07:08:59;23.60;99.90
7720;DHT22;3902;49.474;8.616;2023-06-19T07:11:24;23.60;99.90
7720;DHT22;3902;49.474;8.616;2023-06-19T07:13:50;23.60;99.90
7720;DHT22;3902;49.474;8.616;2023-06-19T07:16:15;23.50;99.90
7720;DHT22;3902;49.474;8.616;2023-06-19T07:18:41;23.60;99.90
7720;DHT22;3902;49.474;8.616;2023-06-19T07:21:11;23.70;99.90
7720;DHT22;3902;49.474;8.616;2023-06-19T07:23:39;23.70;99.90
7720;DHT22;3902;49.474;8.616;2023-06-19T07:26:05;23.70;99.90
7720;DHT22;3902;49.474;8.616;2023-06-19T07:28:30;23.70;99.90
7720;DHT22;3902;49.474;8.616;2023-06-19T07:30:56;23.80;99.90
7720;DHT22;3902;49.474;8.616;2023-06-19T07:33:21;23.80;99.90
7720;DHT22;3902;49.474;8.616;2023-06-19T07:35:47;23.90;99.90
7720;DHT22;3902;49.474;8.616;2023-06-19T07:38:13;24.00;99.90
7720;DHT22;3902;49.474;8.616;2023-06-19T07:40:38;24.10;99.90
7720;DHT22;3902;49.474;8.616;2023-06-19T07:43:04;24.10;99.90
7720;DHT22;3902;49.474;8.616;2023-06-19T07:45:30;24.10;99.90
7720;DHT22;3902;49.474;8.616;2023-06-19T07:47:56;24.20;99.90
7720;DHT22;3902;49.474;8.616;2023-06-19T07:50:22;24.00;99.90
7720;DHT22;3902;49.474;8.616;2023-06-19T07:52:47;24.10;99.90
7720;DHT22;3902;49.474;8.616;2023-06-19T07:55:13;24.10;99.90
7720;DHT22;3902;49.474;8.616;2023-06-19T07:57:39;24.20;99.90
7720;DHT22;3902;49.474;8.616;2023-06-19T08:00:05;24.20;99.90
7720;DHT22;3902;49.474;8.616;2023-06-19T08:02:36;24.10;99.90
7720;DHT22;3902;49.474;8.616;2023-06-19T08:05:02;24.10;99.90
7720;DHT22;3902;49.474;8.616;2023-06-19T08:07:28;24.00;99.90
7720;DHT22;3902;49.474;8.616;2023-06-19T08:09:53;24.10;99.90
7720;DHT22;3902;49.474;8.616;2023-06-19T08:12:19;24.10;99.90
7720;DHT22;3902;49.474;8.616;2023-06-19T08:14:44;24.10;99.90
7720;DHT22;3902;49.474;8.616;2023-06-19T08:17:10;24.00;99.90
7720;DHT22;3902;49.474;8.616;2023-06-19T08:19:35;24.10;99.90
7720;DHT22;3902;49.474;8.616;2023-06-19T08:22:01;24.10;99.90
7720;DHT22;3902;49.474;8.616;2023-06-19T08:24:27;24.10;99.90
7720;DHT22;3902;49.474;8.616;2023-06-19T08:26:54;24.20;99.90
7720;DHT22;3902;49.474;8.616;2023-06-19T08:29:19;24.20;99.90
7720;DHT22;3902;49.474;8.616;2023-06-19T08:31:45;24.20;99.90
7720;DHT22;3902;49.474;8.616;2023-06-19T08:34:11;24.30;99.90
7720;DHT22;3902;49.474;8.616;2023-06-19T08:36:36;24.40;99.90
7720;DHT22;3902;49.474;8.616;2023-06-19T08:39:02;24.50;99.90
7720;DHT22;3902;49.474;8.616;2023-06-19T08:41:28;24.50;99.90
7720;DHT22;3902;49.474;8.616;2023-06-19T08:43:54;24.70;99.90
7720;DHT22;3902;49.474;8.616;2023-06-19T08:46:20;24.70;99.90
7720;DHT22;3902;49.474;8.616;2023-06-19T08:48:46;24.70;99.90
7720;DHT22;3902;49.474;8.616;2023-06-19T08:51:11;24.80;99.90
7720;DHT22;3902;49.474;8.616;2023-06-19T08:53:47;24.90;99.90
7720;DHT22;3902;49.474;8.616;2023-06-19T08:56:13;24.90;99.90
7720;DHT22;3902;49.474;8.616;2023-06-19T08:58:39;25.00;99.90
7720;DHT22;3902;49.474;8.616;2023-06-19T09:01:04;24.90;99.90
7720;DHT22;3902;49.474;8.616;2023-06-19T09:03:30;24.90;99.90
7720;DHT22;3902;49.474;8.616;2023-06-19T09:05:56;25.00;99.90
7720;DHT22;3902;49.474;8.616;2023-06-19T09:08:22;25.00;99.90
7720;DHT22;3902;49.474;8.616;2023-06-19T09:10:58;25.10;99.90
7720;DHT22;3902;49.474;8.616;2023-06-19T09:13:24;25.00;99.90
7720;DHT22;3902;49.474;8.616;2023-06-19T09:16:07;25.00;99.90
7720;DHT22;3902;49.474;8.616;2023-06-19T09:18:47;24.90;99.90
7720;DHT22;3902;49.474;8.616;2023-06-19T09:21:20;25.00;99.90
7720;DHT22;3902;49.474;8.616;2023-06-19T09:23:50;25.10;99.90
7720;DHT22;3902;49.474;8.616;2023-06-19T09:26:19;24.90;99.90
7720;DHT22;3902;49.474;8.616;2023-06-19T09:28:48;25.10;99.90
7720;DHT22;3902;49.474;8.616;2023-06-19T09:31:15;25.10;99.90
7720;DHT22;3902;49.474;8.616;2023-06-19T09:33:41;25.10;99.90
7720;DHT22;3902;49.474;8.616;2023-06-19T09:36:07;25.10;99.90
7720;DHT22;3902;49.474;8.616;2023-06-19T09:38:37;25.10;99.90
7720;DHT22;3902;49.474;8.616;2023-06-19T09:41:05;25.30;99.90
7720;DHT22;3902;49.474;8.616;2023-06-19T09:43:44;25.30;99.90
7720;DHT22;3902;49.474;8.616;2023-06-19T09:46:12;25.30;99.90
7720;DHT22;3902;49.474;8.616;2023-06-19T09:48:45;25.30;99.90
7720;DHT22;3902;49.474;8.616;2023-06-19T09:51:19;25.50;99.90
7720;DHT22;3902;49.474;8.616;2023-06-19T09:53:47;25.60;99.90
7720;DHT22;3902;49.474;8.616;2023-06-19T09:56:14;25.60;99.90
7720;DHT22;3902;49.474;8.616;2023-06-19T09:58:41;25.50;99.90
7720;DHT22;3902;49.474;8.616;2023-06-19T10:01:07;25.60;99.90
7720;DHT22;3902;49.474;8.616;2023-06-19T10:03:34;25.70;99.90
7720;DHT22;3902;49.474;8.616;2023-06-19T10:06:02;25.70;99.90
7720;DHT22;3902;49.474;8.616;2023-06-19T10:08:38;25.80;99.90
7720;DHT22;3902;49.474;8.616;2023-06-19T10:11:04;25.80;99.90
7720;DHT22;3902;49.474;8.616;2023-06-19T10:13:35;25.80;99.90
7720;DHT22;3902;49.474;8.616;2023-06-19T10:16:02;25.90;99.90
7720;DHT22;3902;49.474;8.616;2023-06-19T10:18:28;26.00;99.90
7720;DHT22;3902;49.474;8.616;2023-06-19T10:20:54;26.10;99.90
7720;DHT22;3902;49.474;8.616;2023-06-19T10:23:22;26.20;99.90
7720;DHT22;3902;49.474;8.616;2023-06-19T10:25:55;26.40;99.90
7720;DHT22;3902;49.474;8.616;2023-06-19T10:28:32;26.40;99.90
7720;DHT22;3902;49.474;8.616;2023-06-19T10:31:00;26.30;99.90
7720;DHT22;3902;49.474;8.616;2023-06-19T10:33:32;26.40;99.90
7720;DHT22;3902;49.474;8.616;2023-06-19T10:36:17;26.40;99.90
7720;DHT22;3902;49.474;8.616;2023-06-19T10:38:42;26.50;99.90
7720;DHT22;3902;49.474;8.616;2023-06-19T10:41:24;26.60;99.90
7720;DHT22;3902;49.474;8.616;2023-06-19T10:44:03;26.60;99.80
7720;DHT22;3902;49.474;8.616;2023-06-19T10:46:34;26.50;99.90
7720;DHT22;3902;49.474;8.616;2023-06-19T10:49:05;26.60;99.90
7720;DHT22;3902;49.474;8.616;2023-06-19T10:51:33;26.80;99.90
7720;DHT22;3902;49.474;8.616;2023-06-19T10:53:59;26.80;99.90
7720;DHT22;3902;49.474;8.616;2023-06-19T10:56:25;27.00;99.90
7720;DHT22;3902;49.474;8.616;2023-06-19T10:59:05;27.10;99.90
7720;DHT22;3902;49.474;8.616;2023-06-19T11:01:45;27.30;99.70
7720;DHT22;3902;49.474;8.616;2023-06-19T11:04:12;27.50;98.60
7720;DHT22;3902;49.474;8.616;2023-06-19T11:06:40;27.50;98.60
7720;DHT22;3902;49.474;8.616;2023-06-19T11:09:07;27.60;98.00
7720;DHT22;3902;49.474;8.616;2023-06-19T11:11:45;27.70;98.00
7720;DHT22;3902;49.474;8.616;2023-06-19T11:14:17;27.80;98.10
7720;DHT22;3902;49.474;8.616;2023-06-19T11:16:47;27.80;97.80
7720;DHT22;3902;49.474;8.616;2023-06-19T11:19:18;28.00;98.60
7720;DHT22;3902;49.474;8.616;2023-06-19T11:21:46;28.20;98.70
7720;DHT22;3902;49.474;8.616;2023-06-19T11:24:13;28.20;97.10
7720;DHT22;3902;49.474;8.616;2023-06-19T11:26:47;28.20;97.20
7720;DHT22;3902;49.474;8.616;2023-06-19T11:29:28;28.30;97.20
7720;DHT22;3902;49.474;8.616;2023-06-19T11:32:06;28.40;96.90
7720;DHT22;3902;49.474;8.616;2023-06-19T11:34:33;28.30;96.70
7720;DHT22;3902;49.474;8.616;2023-06-19T11:36:59;28.20;96.90
7720;DHT22;3902;49.474;8.616;2023-06-19T11:39:24;28.40;97.30
7720;DHT22;3902;49.474;8.616;2023-06-19T11:41:50;28.50;97.30
7720;DHT22;3902;49.474;8.616;2023-06-19T11:44:16;28.60;97.20
7720;DHT22;3902;49.474;8.616;2023-06-19T11:46:42;28.70;97.10
7720;DHT22;3902;49.474;8.616;2023-06-19T11:49:15;29.00;97.40
7720;DHT22;3902;49.474;8.616;2023-06-19T11:51:44;29.10;97.00
7720;DHT22;3902;49.474;8.616;2023-06-19T11:54:12;29.40;97.00
7720;DHT22;3902;49.474;8.616;2023-06-19T11:56:38;29.60;96.10
7720;DHT22;3902;49.474;8.616;2023-06-19T11:59:04;29.60;95.00
7720;DHT22;3902;49.474;8.616;2023-06-19T12:01:31;29.40;94.40
7720;DHT22;3902;49.474;8.616;2023-06-19T12:03:57;29.50;94.30
7720;DHT22;3902;49.474;8.616;2023-06-19T12:06:23;29.60;94.40
7720;DHT22;3902;49.474;8.616;2023-06-19T12:08:49;29.60;94.40
7720;DHT22;3902;49.474;8.616;2023-06-19T12:11:14;29.60;94.00
7720;DHT22;3902;49.474;8.616;2023-06-19T12:13:40;29.70;94.30
7720;DHT22;3902;49.474;8.616;2023-06-19T12:16:07;29.50;93.60
7720;DHT22;3902;49.474;8.616;2023-06-19T12:18:32;29.30;93.70
7720;DHT22;3902;49.474;8.616;2023-06-19T12:20:58;29.20;94.00
7720;DHT22;3902;49.474;8.616;2023-06-19T12:23:23;29.10;94.10
7720;DHT22;3902;49.474;8.616;2023-06-19T12:25:49;29.10;94.10
7720;DHT22;3902;49.474;8.616;2023-06-19T12:28:14;29.20;94.80
7720;DHT22;3902;49.474;8.616;2023-06-19T12:30:47;29.30;94.60
7720;DHT22;3902;49.474;8.616;2023-06-19T12:33:17;29.20;94.10
7720;DHT22;3902;49.474;8.616;2023-06-19T12:35:44;29.20;94.30
7720;DHT22;3902;49.474;8.616;2023-06-19T12:38:10;29.20;94.70
7720;DHT22;3902;49.474;8.616;2023-06-19T12:40:36;29.40;94.60
7720;DHT22;3902;49.474;8.616;2023-06-19T12:43:02;29.50;94.80
7720;DHT22;3902;49.474;8.616;2023-06-19T12:45:28;29.40;93.80
7720;DHT22;3902;49.474;8.616;2023-06-19T12:47:53;29.40;93.70
7720;DHT22;3902;49.474;8.616;2023-06-19T12:50:19;29.40;93.60
7720;DHT22;3902;49.474;8.616;2023-06-19T12:52:44;29.20;93.10
7720;DHT22;3902;49.474;8.616;2023-06-19T12:55:10;29.40;93.60
7720;DHT22;3902;49.474;8.616;2023-06-19T12:57:36;29.50;93.10
7720;DHT22;3902;49.474;8.616;2023-06-19T13:00:02;29.60;93.20
7720;DHT22;3902;49.474;8.616;2023-06-19T13:02:30;29.60;93.00
7720;DHT22;3902;49.474;8.616;2023-06-19T13:04:56;29.60;93.00
7720;DHT22;3902;49.474;8.616;2023-06-19T13:07:23;29.60;93.30
7720;DHT22;3902;49.474;8.616;2023-06-19T13:09:49;29.70;93.70
7720;DHT22;3902;49.474;8.616;2023-06-19T13:12:14;29.80;93.60
7720;DHT22;3902;49.474;8.616;2023-06-19T13:14:40;29.90;93.50
7720;DHT22;3902;49.474;8.616;2023-06-19T13:17:05;29.90;92.80
7720;DHT22;3902;49.474;8.616;2023-06-19T13:19:32;30.10;93.40
7720;DHT22;3902;49.474;8.616;2023-06-19T13:21:57;30.20;93.00
7720;DHT22;3902;49.474;8.616;2023-06-19T13:24:23;30.40;93.40
7720;DHT22;3902;49.474;8.616;2023-06-19T13:26:48;30.50;91.90
7720;DHT22;3902;49.474;8.616;2023-06-19T13:29:14;30.60;93.20
7720;DHT22;3902;49.474;8.616;2023-06-19T13:31:40;30.60;91.80
7720;DHT22;3902;49.474;8.616;2023-06-19T13:34:06;30.70;91.90
7720;DHT22;3902;49.474;8.616;2023-06-19T13:36:31;30.80;91.60
7720;DHT22;3902;49.474;8.616;2023-06-19T13:38:57;30.90;92.10
7720;DHT22;3902;49.474;8.616;2023-06-19T13:41:23;31.20;92.70
7720;DHT22;3902;49.474;8.616;2023-06-19T13:43:53;31.30;91.30
7720;DHT22;3902;49.474;8.616;2023-06-19T13:46:19;31.20;91.30
7720;DHT22;3902;49.474;8.616;2023-06-19T13:48:47;31.00;91.10
7720;DHT22;3902;49.474;8.616;2023-06-19T13:51:16;30.90;90.70
7720;DHT22;3902;49.474;8.616;2023-06-19T13:53:42;30.80;90.70
7720;DHT22;3902;49.474;8.616;2023-06-19T13:56:07;30.80;90.90
7720;DHT22;3902;49.474;8.616;2023-06-19T13:58:33;30.60;90.70
7720;DHT22;3902;49.474;8.616;2023-06-19T14:00:58;30.40;91.20
7720;DHT22;3902;49.474;8.616;2023-06-19T14:03:24;30.30;91.00
7720;DHT22;3902;49.474;8.616;2023-06-19T14:05:49;30.40;91.70
7720;DHT22;3902;49.474;8.616;2023-06-19T14:08:15;30.30;91.40
7720;DHT22;3902;49.474;8.616;2023-06-19T14:10:41;30.40;91.60
7720;DHT22;3902;49.474;8.616;2023-06-19T14:13:06;30.40;90.80
7720;DHT22;3902;49.474;8.616;2023-06-19T14:15:32;30.40;91.00
7720;DHT22;3902;49.474;8.616;2023-06-19T14:17:57;30.40;91.20
7720;DHT22;3902;49.474;8.616;2023-06-19T14:20:23;30.30;91.20
7720;DHT22;3902;49.474;8.616;2023-06-19T14:22:48;30.30;91.60
7720;DHT22;3902;49.474;8.616;2023-06-19T14:25:14;30.30;91.70
7720;DHT22;3902;49.474;8.616;2023-06-19T14:27:39;30.40;91.90
7720;DHT22;3902;49.474;8.616;2023-06-19T14:30:05;30.50;92.30
7720;DHT22;3902;49.474;8.616;2023-06-19T14:32:34;30.60;91.40
7720;DHT22;3902;49.474;8.616;2023-06-19T14:35:01;30.60;91.40
7720;DHT22;3902;49.474;8.616;2023-06-19T14:37:27;30.70;91.10
7720;DHT22;3902;49.474;8.616;2023-06-19T14:39:52;30.70;91.00
7720;DHT22;3902;49.474;8.616;2023-06-19T14:42:19;30.70;90.80
7720;DHT22;3902;49.474;8.616;2023-06-19T14:44:44;30.50;90.70
7720;DHT22;3902;49.474;8.616;2023-06-19T14:47:10;30.60;90.70
7720;DHT22;3902;49.474;8.616;2023-06-19T14:49:35;30.70;90.80
7720;DHT22;3902;49.474;8.616;2023-06-19T14:52:01;30.90;91.10
7720;DHT22;3902;49.474;8.616;2023-06-19T14:54:26;30.60;90.30
7720;DHT22;3902;49.474;8.616;2023-06-19T14:56:52;30.70;90.70
7720;DHT22;3902;49.474;8.616;2023-06-19T14:59:18;30.70;90.90
7720;DHT22;3902;49.474;8.616;2023-06-19T15:01:44;30.80;90.50
7720;DHT22;3902;49.474;8.616;2023-06-19T15:04:10;30.70;90.50
7720;DHT22;3902;49.474;8.616;2023-06-19T15:06:35;30.70;90.50
7720;DHT22;3902;49.474;8.616;2023-06-19T15:09:01;30.60;90.70
7720;DHT22;3902;49.474;8.616;2023-06-19T15:11:26;30.50;90.80
7720;DHT22;3902;49.474;8.616;2023-06-19T15:13:52;30.50;90.60
7720;DHT22;3902;49.474;8.616;2023-06-19T15:16:18;30.60;90.40
7720;DHT22;3902;49.474;8.616;2023-06-19T15:18:47;30.70;91.00
7720;DHT22;3902;49.474;8.616;2023-06-19T15:21:13;30.60;90.50
7720;DHT22;3902;49.474;8.616;2023-06-19T15:23:39;30.70;90.60
7720;DHT22;3902;49.474;8.616;2023-06-19T15:26:04;30.80;90.50
7720;DHT22;3902;49.474;8.616;2023-06-19T15:28:33;30.90;91.20
7720;DHT22;3902;49.474;8.616;2023-06-19T15:30:58;30.90;91.30
7720;DHT22;3902;49.474;8.616;2023-06-19T15:33:24;30.80;90.40
7720;DHT22;3902;49.474;8.616;2023-06-19T15:35:50;30.70;90.90
7720;DHT22;3902;49.474;8.616;2023-06-19T15:38:16;30.70;90.90
7720;DHT22;3902;49.474;8.616;2023-06-19T15:40:42;30.70;91.10
7720;DHT22;3902;49.474;8.616;2023-06-19T15:43:07;30.50;90.80
7720;DHT22;3902;49.474;8.616;2023-06-19T15:45:33;30.40;90.70
7720;DHT22;3902;49.474;8.616;2023-06-19T15:47:58;30.40;91.20
7720;DHT22;3902;49.474;8.616;2023-06-19T15:50:24;30.30;91.40
7720;DHT22;3902;49.474;8.616;2023-06-19T15:52:49;30.20;91.10
7720;DHT22;3902;49.474;8.616;2023-06-19T15:55:15;30.10;91.10
7720;DHT22;3902;49.474;8.616;2023-06-19T15:57:40;30.00;91.00
7720;DHT22;3902;49.474;8.616;2023-06-19T16:00:07;29.90;91.10